Time;durP1;ratioP1;P1;durP2;ratioP2;P2;SDS_P1;SDS_P2;PMS_P1;PMS_P2;Temp;Humidity;BMP_temperature;BMP_pressure;BME280_temperature;BME280_humidity;BME280_pressure;Samples;Min_cycle;Max_cycle;Signal;HPM_P1;HPM_P2
2023/11/10 00:01:24;;;;;;;4.57;0.80;;;;;;;10.46;99.01;98931.94;5181588;28;20040;-70
2023/11/10 00:03:54;;;;;;;4.00;0.80;;;;;;;10.44;98.49;98937.28;5186106;28;20404;-70
2023/11/10 00:06:24;;;;;;;3.40;0.60;;;;;;;10.44;98.06;98932.03;5187411;28;20049;-70
2023/11/10 00:08:55;;;;;;;7.07;0.93;;;;;;;10.38;99.00;98931.59;5186587;28;20026;-70
2023/11/10 00:11:26;;;;;;;4.13;0.80;;;;;;;10.53;98.44;98931.47;5179149;28;20029;-70
2023/11/10 00:13:57;;;;;;;2.63;0.60;;;;;;;10.54;99.50;98929.72;5182809;28;20025;-70
2023/11/10 00:16:27;;;;;;;5.90;0.70;;;;;;;10.47;100.00;98933.63;5181629;28;20030;-70
2023/11/10 00:18:58;;;;;;;3.92;1.17;;;;;;;10.48;99.91;98937.94;5183244;28;20030;-70
2023/11/10 00:21:29;;;;;;;5.55;0.55;;;;;;;10.53;99.65;98939.31;5184656;28;20307;-70
2023/11/10 00:23:59;;;;;;;3.55;0.68;;;;;;;10.49;99.63;98937.81;5182627;28;20112;-70
2023/11/10 00:26:33;;;;;;;4.97;0.80;;;;;;;10.52;98.82;98935.00;5182874;28;20033;-70
2023/11/10 00:29:03;;;;;;;4.18;1.00;;;;;;;10.52;100.00;98929.78;5179912;28;20022;-70
2023/11/10 00:31:33;;;;;;;6.55;0.90;;;;;;;10.45;99.94;98935.47;5184229;28;20064;-70
2023/11/10 00:34:04;;;;;;;4.70;0.63;;;;;;;10.51;99.81;98933.34;5182541;28;20112;-70
2023/11/10 00:36:34;;;;;;;4.82;0.88;;;;;;;10.44;100.00;98926.81;5182145;28;20025;-71
2023/11/10 00:39:04;;;;;;;5.28;1.08;;;;;;;10.55;99.27;98934.81;5181411;28;20033;-70
2023/11/10 00:41:35;;;;;;;7.50;0.90;;;;;;;10.48;99.05;98941.38;5181792;28;20261;-70
2023/11/10 00:44:05;;;;;;;2.58;0.70;;;;;;;10.53;99.99;98939.31;5182357;28;20050;-71
2023/11/10 00:46:36;;;;;;;3.30;0.80;;;;;;;10.48;100.00;98930.09;5181172;28;20017;-70
2023/11/10 00:49:08;;;;;;;4.75;1.02;;;;;;;10.47;99.67;98929.25;5182663;28;20029;-70
2023/11/10 00:51:38;;;;;;;3.95;1.00;;;;;;;10.46;100.00;98931.94;5181596;28;20028;-70
2023/11/10 00:54:09;;;;;;;7.82;1.05;;;;;;;10.48;100.00;98925.69;5181869;28;20411;-70
2023/11/10 00:56:39;;;;;;;3.13;0.70;;;;;;;10.35;100.00;98919.53;5180723;28;20034;-70
2023/11/10 00:59:10;;;;;;;3.22;0.93;;;;;;;10.38;100.00;98924.56;5184033;28;20337;-71
2023/11/10 01:01:42;;;;;;;2.28;0.73;;;;;;;10.34;100.00;98927.47;5183620;28;20502;-70
2023/11/10 01:04:12;;;;;;;4.10;1.20;;;;;;;10.35;100.00;98932.59;5183896;28;20041;-70
2023/11/10 01:06:43;;;;;;;2.55;0.70;;;;;;;10.43;100.00;98932.13;5186662;28;21194;-70
2023/11/10 01:09:13;;;;;;;3.55;1.10;;;;;;;10.37;99.63;98929.91;5183863;28;20240;-70
2023/11/10 01:11:43;;;;;;;4.50;1.17;;;;;;;10.28;100.00;98927.84;5181105;28;20438;-70
2023/11/10 01:14:13;;;;;;;1.80;0.68;;;;;;;10.29;100.00;98929.50;5182223;28;20396;-70
2023/11/10 01:16:44;;;;;;;3.88;1.00;;;;;;;10.22;100.00;98928.22;5181428;28;20037;-70
2023/11/10 01:19:15;;;;;;;2.55;0.90;;;;;;;10.13;100.00;98931.41;5183951;28;20044;-70
2023/11/10 01:21:46;;;;;;;6.15;0.90;;;;;;;10.04;100.00;98931.94;5185484;28;20021;-70
2023/11/10 01:24:17;;;;;;;4.30;0.80;;;;;;;9.96;100.00;98939.34;5184233;28;20021;-70
2023/11/10 01:26:49;;;;;;;3.50;0.93;;;;;;;9.93;100.00;98942.97;5183429;28;20025;-70
2023/11/10 01:29:19;;;;;;;4.18;1.40;;;;;;;9.83;100.00;98944.44;5177714;28;20030;-70
2023/11/10 01:31:49;;;;;;;6.82;1.42;;;;;;;9.79;100.00;98936.91;5179567;28;20442;-70
2023/11/10 01:34:20;;;;;;;3.88;1.10;;;;;;;9.81;100.00;98933.25;5183443;28;20034;-70
2023/11/10 01:36:50;;;;;;;4.15;1.27;;;;;;;9.83;100.00;98927.97;5185041;23;20121;-79
2023/11/10 01:39:20;;;;;;;4.78;0.90;;;;;;;9.87;100.00;98921.63;5159756;28;20034;-78
2023/11/10 01:41:52;;;;;;;6.82;1.00;;;;;;;9.82;100.00;98926.28;5159646;28;20536;-79
2023/11/10 01:44:23;;;;;;;8.00;1.23;;;;;;;9.83;100.00;98935.78;5162866;28;20092;-78
2023/11/10 01:46:53;;;;;;;4.40;0.80;;;;;;;9.71;100.00;98936.50;5163301;28;20435;-77
2023/11/10 01:49:24;;;;;;;4.82;1.13;;;;;;;9.80;100.00;98936.78;5162959;28;20112;-75
2023/11/10 01:51:55;;;;;;;5.72;0.88;;;;;;;9.78;100.00;98938.66;5164062;28;20030;-78
2023/11/10 01:54:29;;;;;;;5.88;0.93;;;;;;;9.71;100.00;98941.69;5164353;28;20036;-78
2023/11/10 01:57:01;;;;;;;4.63;1.10;;;;;;;9.75;100.00;98944.06;5163935;28;20105;-78
2023/11/10 01:59:34;;;;;;;4.35;1.05;;;;;;;9.72;100.00;98946.00;5164331;28;20042;-78
2023/11/10 02:02:05;;;;;;;5.38;0.80;;;;;;;9.74;100.00;98951.97;5163489;28;20037;-78
2023/11/10 02:04:38;;;;;;;5.18;1.13;;;;;;;9.72;100.00;98948.59;5166920;28;20403;-79
2023/11/10 02:07:09;;;;;;;2.03;0.93;;;;;;;9.82;99.26;98954.97;5163688;28;20042;-78
2023/11/10 02:09:39;;;;;;;7.03;1.50;;;;;;;9.82;100.00;98958.41;5161166;28;20110;-78
2023/11/10 02:12:10;;;;;;;3.20;1.00;;;;;;;9.78;99.37;98959.53;5161703;28;20557;-79
2023/11/10 02:14:40;;;;;;;4.00;0.90;;;;;;;9.72;98.25;98948.59;5163218;28;20045;-78
2023/11/10 02:17:11;;;;;;;3.13;0.90;;;;;;;9.56;98.38;98939.97;5163147;28;20077;-76
2023/11/10 02:19:42;;;;;;;2.90;0.82;;;;;;;9.46;98.25;98944.88;5163410;28;20484;-78
2023/11/10 02:22:12;;;;;;;2.97;0.90;;;;;;;9.33;98.92;98945.69;5166048;28;20053;-76
2023/11/10 02:24:44;;;;;;;3.03;0.77;;;;;;;9.26;99.33;98947.78;5164756;28;20030;-78
2023/11/10 02:27:15;;;;;;;3.50;0.90;;;;;;;9.23;99.33;98944.50;5165361;28;20022;-78
2023/11/10 02:29:45;;;;;;;2.50;0.77;;;;;;;9.15;99.29;98946.72;5163557;28;20028;-78
2023/11/10 02:32:15;;;;;;;3.28;0.52;;;;;;;9.16;99.74;98943.19;5161738;28;20034;-78
2023/11/10 02:34:46;;;;;;;2.45;0.60;;;;;;;9.14;99.23;98935.44;5165335;28;20480;-78
2023/11/10 02:37:16;;;;;;;2.10;0.60;;;;;;;9.09;99.28;98936.59;5167384;28;20026;-78
2023/11/10 02:39:46;;;;;;;2.70;0.82;;;;;;;8.98;99.83;98943.34;5166336;28;20037;-78
2023/11/10 02:42:16;;;;;;;4.88;0.52;;;;;;;8.91;100.00;98932.41;5165289;28;20034;-76
2023/11/10 02:44:47;;;;;;;3.13;0.90;;;;;;;8.87;100.00;98936.13;5170102;28;20109;-78
2023/11/10 02:47:17;;;;;;;3.78;0.85;;;;;;;8.86;100.00;98939.66;5170737;28;20032;-78
2023/11/10 02:49:47;;;;;;;6.22;1.00;;;;;;;8.83;98.99;98938.97;5174004;28;20038;-78
2023/11/10 02:52:18;;;;;;;4.15;0.77;;;;;;;8.77;99.30;98942.78;5171163;28;20029;-78
2023/11/10 02:54:48;;;;;;;3.25;1.20;;;;;;;8.73;99.77;98933.41;5168498;28;20058;-78
2023/11/10 02:57:20;;;;;;;3.63;1.10;;;;;;;8.69;98.76;98920.69;5171168;28;20026;-78
2023/11/10 02:59:51;;;;;;;3.35;0.90;;;;;;;8.58;100.00;98923.81;5169901;28;20700;-78
2023/11/10 03:02:21;;;;;;;3.08;0.95;;;;;;;8.37;100.00;98929.38;5168409;28;20072;-76
2023/11/10 03:04:51;;;;;;;2.83;0.80;;;;;;;8.30;100.00;98928.00;5169320;28;20053;-78
2023/11/10 03:07:22;;;;;;;2.15;0.57;;;;;;;8.24;100.00;98938.72;5171029;28;20041;-79
2023/11/10 03:09:52;;;;;;;5.18;0.60;;;;;;;8.29;100.00;98937.56;5165696;28;20824;-76
2023/11/10 03:12:23;;;;;;;2.63;0.43;;;;;;;8.20;100.00;98943.25;5171420;28;20041;-76
2023/11/10 03:14:54;;;;;;;1.25;0.40;;;;;;;8.20;100.00;98932.84;5172938;28;20030;-76
2023/11/10 03:17:24;;;;;;;3.70;0.50;;;;;;;8.22;100.00;98931.00;5170727;28;20075;-75
2023/11/10 03:19:55;;;;;;;3.58;0.68;;;;;;;8.28;100.00;98922.88;5170820;28;20033;-78
2023/11/10 03:22:26;;;;;;;2.15;0.30;;;;;;;8.24;100.00;98933.53;5167352;28;20029;-77
2023/11/10 03:24:56;;;;;;;3.05;0.43;;;;;;;8.30;100.00;98938.41;5173091;28;20109;-78
2023/11/10 03:27:26;;;;;;;3.50;0.47;;;;;;;8.26;100.00;98944.69;5163662;28;20018;-77
2023/11/10 03:29:57;;;;;;;1.55;0.50;;;;;;;8.36;100.00;98944.13;5168443;28;20046;-78
2023/11/10 03:32:27;;;;;;;2.03;0.40;;;;;;;8.34;100.00;98942.50;5167920;28;20105;-77
2023/11/10 03:34:58;;;;;;;2.30;0.40;;;;;;;8.33;100.00;98938.22;5174631;28;20021;-78
2023/11/10 03:37:28;;;;;;;2.22;0.40;;;;;;;8.27;100.00;98935.97;5171983;28;20084;-78
2023/11/10 03:39:58;;;;;;;1.95;0.45;;;;;;;8.36;100.00;98943.31;5175625;28;20104;-78
2023/11/10 03:42:30;;;;;;;4.38;0.40;;;;;;;8.35;100.00;98942.44;5173310;28;20025;-78
2023/11/10 03:45:00;;;;;;;1.33;0.30;;;;;;;8.26;100.00;98942.09;5175750;28;20048;-78
2023/11/10 03:47:31;;;;;;;2.30;0.35;;;;;;;8.27;100.00;98948.97;5167562;28;20022;-78
2023/11/10 03:50:02;;;;;;;4.30;0.60;;;;;;;8.29;100.00;98942.78;5173873;28;20052;-78
2023/11/10 03:52:33;;;;;;;4.90;0.50;;;;;;;8.41;100.00;98936.91;5171776;28;20038;-77
2023/11/10 03:55:04;;;;;;;8.02;0.50;;;;;;;8.39;100.00;98941.34;5166716;28;20044;-78
2023/11/10 03:57:34;;;;;;;2.42;0.30;;;;;;;8.41;100.00;98931.69;5172792;28;20036;-78
2023/11/10 04:00:06;;;;;;;1.40;0.50;;;;;;;8.57;100.00;98940.38;5174246;28;20033;-78
2023/11/10 04:02:37;;;;;;;1.48;0.30;;;;;;;8.57;100.00;98939.56;5166337;28;20683;-78
2023/11/10 04:05:07;;;;;;;1.80;0.30;;;;;;;8.42;100.00;98930.78;5167868;28;20060;-77
2023/11/10 04:07:38;;;;;;;1.63;0.30;;;;;;;8.48;100.00;98933.06;5168573;28;20439;-78
2023/11/10 04:10:10;;;;;;;2.67;0.40;;;;;;;8.48;100.00;98927.88;5174887;28;20033;-78
2023/11/10 04:12:41;;;;;;;2.10;0.40;;;;;;;8.54;100.00;98922.31;5173982;28;20518;-78
2023/11/10 04:15:11;;;;;;;3.28;0.50;;;;;;;8.52;100.00;98926.78;5177728;28;20064;-78
2023/11/10 04:17:41;;;;;;;1.52;0.35;;;;;;;8.53;100.00;98925.84;5172485;28;20028;-78
2023/11/10 04:20:12;;;;;;;2.90;0.45;;;;;;;8.54;100.00;98919.72;5178081;28;20041;-77
2023/11/10 04:22:42;;;;;;;3.75;0.70;;;;;;;8.49;100.00;98913.94;5171889;28;20080;-78
2023/11/10 04:25:12;;;;;;;2.97;0.50;;;;;;;8.50;100.00;98913.00;5177791;28;20042;-76
2023/11/10 04:27:43;;;;;;;4.78;0.50;;;;;;;8.53;100.00;98914.63;5173267;28;21250;-78
2023/11/10 04:30:15;;;;;;;2.58;0.50;;;;;;;8.59;100.00;98922.91;5177323;28;20034;-76
2023/11/10 04:32:47;;;;;;;2.92;0.60;;;;;;;8.61;100.00;98915.88;5176615;28;20042;-78
2023/11/10 04:35:17;;;;;;;1.75;0.43;;;;;;;8.63;100.00;98903.63;5174202;28;20034;-78
2023/11/10 04:37:49;;;;;;;2.70;0.50;;;;;;;8.64;100.00;98907.03;5171998;28;20026;-78
2023/11/10 04:40:19;;;;;;;2.83;0.43;;;;;;;8.62;100.00;98894.13;5168463;28;20101;-78
2023/11/10 04:42:50;;;;;;;3.97;0.50;;;;;;;8.52;100.00;98889.50;5166212;28;21866;-78
2023/11/10 04:45:20;;;;;;;3.33;0.50;;;;;;;8.58;100.00;98894.38;5169781;28;20034;-77
2023/11/10 04:47:53;;;;;;;2.08;0.40;;;;;;;8.53;100.00;98889.41;5171347;28;20034;-78
2023/11/10 04:50:23;;;;;;;2.05;0.40;;;;;;;8.48;99.79;98903.59;5169598;28;20205;-78
2023/11/10 04:52:54;;;;;;;1.42;0.40;;;;;;;8.36;100.00;98906.88;5173821;28;20021;-77
2023/11/10 04:55:25;;;;;;;3.88;0.40;;;;;;;8.34;100.00;98903.47;5172292;28;20029;-75
2023/11/10 04:57:55;;;;;;;2.63;0.30;;;;;;;8.23;100.00;98906.66;5167912;28;20483;-77
2023/11/10 05:00:25;;;;;;;2.50;0.28;;;;;;;7.91;100.00;98898.81;5170156;28;20029;-76
2023/11/10 05:02:57;;;;;;;1.98;0.40;;;;;;;7.79;100.00;98902.91;5172362;28;20041;-77
2023/11/10 05:05:27;;;;;;;2.22;0.50;;;;;;;7.77;100.00;98912.53;5167443;28;20029;-78
2023/11/10 05:07:59;;;;;;;2.40;0.40;;;;;;;7.58;100.00;98918.72;5167744;28;20483;-78
2023/11/10 05:10:30;;;;;;;3.05;0.45;;;;;;;7.61;100.00;98922.03;5171254;28;20498;-78
2023/11/10 05:13:00;;;;;;;3.47;0.40;;;;;;;7.45;100.00;98915.91;5173709;28;20048;-78
2023/11/10 05:15:30;;;;;;;2.85;0.47;;;;;;;7.50;100.00;98919.13;5166146;28;20029;-78
2023/11/10 05:18:01;;;;;;;3.33;0.40;;;;;;;7.58;100.00;98911.78;5165203;28;20565;-77
2023/11/10 05:20:34;;;;;;;3.42;0.50;;;;;;;7.45;100.00;98913.31;5172606;28;20391;-78
2023/11/10 05:23:04;;;;;;;2.92;0.40;;;;;;;7.44;100.00;98905.56;5174548;28;20030;-78
2023/11/10 05:25:35;;;;;;;2.70;0.55;;;;;;;7.44;100.00;98906.44;5170375;28;20380;-75
2023/11/10 05:28:05;;;;;;;1.15;0.30;;;;;;;7.25;100.00;98896.19;5169161;28;20041;-77
2023/11/10 05:30:35;;;;;;;3.38;0.50;;;;;;;7.20;100.00;98903.34;5164904;28;20467;-75
2023/11/10 05:33:05;;;;;;;2.10;0.40;;;;;;;7.27;100.00;98904.75;5166777;28;20149;-77
2023/11/10 05:35:36;;;;;;;3.60;0.68;;;;;;;7.16;100.00;98901.81;5119367;28;1345697;-75
2023/11/10 05:38:08;;;;;;;2.88;0.40;;;;;;;7.22;100.00;98907.56;5173050;28;20128;-78
2023/11/10 05:40:39;;;;;;;2.33;0.60;;;;;;;7.14;100.00;98916.63;5166320;28;20030;-77
2023/11/10 05:43:09;;;;;;;3.38;0.50;;;;;;;7.21;100.00;98916.25;5165034;28;20209;-75
2023/11/10 05:45:39;;;;;;;1.70;0.40;;;;;;;7.10;100.00;98921.13;5153107;28;20215;-78
2023/11/10 05:48:10;;;;;;;1.42;0.40;;;;;;;6.99;100.00;98925.16;5163734;28;20034;-78
2023/11/10 05:50:40;;;;;;;2.10;0.40;;;;;;;6.91;100.00;98932.47;5166889;28;20038;-78
2023/11/10 05:53:11;;;;;;;4.13;0.47;;;;;;;6.93;100.00;98928.88;5170216;28;20061;-78
2023/11/10 05:55:42;;;;;;;1.05;0.22;;;;;;;7.04;100.00;98926.63;5159489;28;20030;-77
2023/11/10 05:58:13;;;;;;;2.72;0.30;;;;;;;6.91;100.00;98922.09;5166298;28;20048;-78
2023/11/10 06:00:43;;;;;;;2.25;0.40;;;;;;;6.81;100.00;98928.63;5160253;28;21204;-77
2023/11/10 06:03:14;;;;;;;2.03;0.28;;;;;;;6.87;100.00;98923.97;5164580;28;20038;-78
2023/11/10 06:05:45;;;;;;;4.60;0.30;;;;;;;6.93;100.00;98928.06;5155968;28;20026;-78
2023/11/10 06:08:16;;;;;;;0.82;0.30;;;;;;;7.02;100.00;98919.81;5164896;28;20544;-77
2023/11/10 06:10:52;;;;;;;1.35;0.25;;;;;;;7.06;100.00;98927.38;5169683;28;20026;-75
2023/11/10 06:13:24;;;;;;;1.35;0.40;;;;;;;7.10;100.00;98913.34;5167775;28;20041;-77
2023/11/10 06:15:56;;;;;;;3.65;0.30;;;;;;;7.25;100.00;98922.16;5163019;28;20404;-77
2023/11/10 06:18:26;;;;;;;2.15;0.30;;;;;;;7.26;100.00;98924.66;5171026;28;20030;-77
2023/11/10 06:20:56;;;;;;;1.27;0.22;;;;;;;7.29;100.00;98911.53;5173495;28;20327;-77
2023/11/10 06:23:27;;;;;;;1.17;0.25;;;;;;;7.28;100.00;98921.09;5172242;28;20026;-77
2023/11/10 06:25:57;;;;;;;1.05;0.30;;;;;;;7.33;100.00;98921.69;5169000;28;20564;-75
2023/11/10 06:28:27;;;;;;;0.88;0.20;;;;;;;7.31;100.00;98923.53;5171556;28;20030;-78
2023/11/10 06:30:58;;;;;;;1.67;0.50;;;;;;;7.43;100.00;98945.47;5169971;28;20443;-78
2023/11/10 06:33:28;;;;;;;5.75;0.90;;;;;;;7.27;100.00;98947.13;5172789;28;20351;-77
2023/11/10 06:35:58;;;;;;;5.32;0.40;;;;;;;7.25;100.00;98942.94;5173236;28;20199;-75
2023/11/10 06:38:29;;;;;;;1.58;0.30;;;;;;;7.12;100.00;98949.63;5171732;28;20050;-78
2023/11/10 06:40:59;;;;;;;2.13;0.55;;;;;;;7.07;100.00;98943.81;5170368;28;20076;-78
2023/11/10 06:43:30;;;;;;;1.33;0.57;;;;;;;7.10;100.00;98944.50;5172150;28;20513;-78
2023/11/10 06:46:00;;;;;;;1.73;0.40;;;;;;;7.26;100.00;98947.22;5166006;28;20018;-77
2023/11/10 06:48:30;;;;;;;1.85;0.43;;;;;;;7.25;100.00;98951.56;5174094;28;20026;-77
2023/11/10 06:51:02;;;;;;;1.38;0.30;;;;;;;7.31;100.00;98954.72;5171430;28;20487;-77
2023/11/10 06:53:32;;;;;;;1.30;0.25;;;;;;;7.28;100.00;98947.06;5172622;28;20034;-78
2023/11/10 06:56:03;;;;;;;4.90;0.60;;;;;;;7.32;100.00;98948.59;5168154;28;20034;-78
2023/11/10 06:58:34;;;;;;;2.58;0.50;;;;;;;7.27;100.00;98951.50;5170726;28;20061;-77
2023/11/10 07:01:06;;;;;;;1.55;0.43;;;;;;;7.24;100.00;98956.84;5166655;28;20030;-77
2023/11/10 07:03:36;;;;;;;3.15;0.50;;;;;;;7.29;100.00;98959.16;5166381;28;20029;-78
2023/11/10 07:06:07;;;;;;;3.30;0.60;;;;;;;7.29;100.00;98955.69;5169443;28;20022;-78
2023/11/10 07:08:39;;;;;;;2.53;0.35;;;;;;;7.37;100.00;98958.78;5173323;28;20084;-78
2023/11/10 07:11:13;;;;;;;0.57;0.15;;;;;;;7.31;100.00;98952.13;5173843;28;20407;-78
2023/11/10 07:13:45;;;;;;;2.63;0.50;;;;;;;7.41;100.00;98949.91;5172736;28;20500;-78
2023/11/10 07:16:20;;;;;;;2.50;0.40;;;;;;;7.46;100.00;98948.78;5170554;28;20088;-75
2023/11/10 07:18:52;;;;;;;4.23;0.47;;;;;;;7.61;100.00;98953.22;5169475;28;20028;-77
2023/11/10 07:21:25;;;;;;;1.23;0.30;;;;;;;7.66;100.00;98948.63;5172165;28;20292;-78
2023/11/10 07:23:55;;;;;;;7.95;0.60;;;;;;;7.78;100.00;98952.38;5168713;28;20100;-78
2023/11/10 07:26:26;;;;;;;0.85;0.30;;;;;;;7.90;100.00;98957.78;5173260;28;20026;-77
2023/11/10 07:28:59;;;;;;;2.13;0.40;;;;;;;7.91;100.00;98959.47;5172799;28;20109;-78
2023/11/10 07:31:29;;;;;;;1.45;0.40;;;;;;;7.97;100.00;98956.56;5174743;28;20021;-77
2023/11/10 07:34:00;;;;;;;3.20;0.38;;;;;;;8.08;100.00;98948.22;5169225;28;20080;-77
2023/11/10 07:36:30;;;;;;;4.13;0.68;;;;;;;8.28;100.00;98953.25;5173791;28;20036;-78
2023/11/10 07:39:00;;;;;;;1.23;0.45;;;;;;;8.34;100.00;98950.31;5173529;28;20035;-78
2023/11/10 07:41:31;;;;;;;2.88;0.40;;;;;;;8.37;100.00;98948.41;5170394;28;20030;-78
2023/11/10 07:44:01;;;;;;;4.95;0.57;;;;;;;8.40;100.00;98961.25;5173227;28;20038;-78
2023/11/10 07:46:33;;;;;;;1.25;0.50;;;;;;;8.29;100.00;98957.53;5174142;28;20491;-78
2023/11/10 07:49:03;;;;;;;3.08;0.40;;;;;;;8.54;100.00;98968.34;5169930;28;20424;-78
2023/11/10 07:51:33;;;;;;;2.72;0.40;;;;;;;9.06;100.00;98955.03;5169260;28;20041;-78
2023/11/10 07:54:04;;;;;;;1.08;0.30;;;;;;;9.37;95.23;98957.59;5171165;28;20042;-78
2023/11/10 07:56:34;;;;;;;1.52;0.32;;;;;;;9.78;93.54;98946.47;5172273;28;20701;-79
2023/11/10 07:59:04;;;;;;;1.40;0.15;;;;;;;10.39;94.95;98941.09;5172255;28;20523;-79
2023/11/10 08:01:35;;;;;;;2.60;0.70;;;;;;;10.72;88.44;98939.03;5173033;28;20034;-75
2023/11/10 08:04:05;;;;;;;2.38;0.40;;;;;;;10.81;86.01;98939.28;5169026;28;20061;-79
2023/11/10 08:06:36;;;;;;;2.22;0.40;;;;;;;11.18;87.55;98939.50;5173405;28;20083;-79
2023/11/10 08:09:07;;;;;;;1.90;0.40;;;;;;;12.82;82.39;98936.13;5171809;28;20033;-77
2023/11/10 08:11:37;;;;;;;2.75;0.50;;;;;;;13.81;77.40;98938.38;5171952;28;20464;-78
2023/11/10 08:14:07;;;;;;;2.50;0.30;;;;;;;14.92;74.68;98921.78;5172694;28;20034;-79
2023/11/10 08:16:38;;;;;;;1.83;0.35;;;;;;;14.17;74.24;98925.13;5174125;28;20030;-79
2023/11/10 08:19:10;;;;;;;2.72;0.40;;;;;;;13.86;75.99;98930.13;5171401;28;20109;-79
2023/11/10 08:21:40;;;;;;;2.17;0.40;;;;;;;12.59;78.96;98940.34;5174196;28;20112;-79
2023/11/10 08:24:11;;;;;;;3.53;0.32;;;;;;;13.35;78.27;98942.69;5170607;28;20066;-79
2023/11/10 08:26:42;;;;;;;1.50;0.38;;;;;;;14.45;74.56;98932.53;5171897;28;20416;-79
2023/11/10 08:29:13;;;;;;;1.85;0.43;;;;;;;15.03;71.59;98935.75;5171916;28;20055;-79
2023/11/10 08:31:46;;;;;;;1.52;0.50;;;;;;;15.30;69.49;98943.25;5172756;28;20384;-78
2023/11/10 08:34:18;;;;;;;1.95;0.40;;;;;;;14.65;71.64;98947.63;5173534;28;20273;-78
2023/11/10 08:36:51;;;;;;;2.35;0.60;;;;;;;14.08;73.96;98956.47;5168010;28;20033;-78
2023/11/10 08:39:21;;;;;;;2.50;0.52;;;;;;;13.49;76.06;98962.66;5170415;28;20214;-78
2023/11/10 08:41:52;;;;;;;2.35;0.40;;;;;;;12.61;77.75;98967.28;5172124;28;20408;-79
2023/11/10 08:44:22;;;;;;;3.20;0.40;;;;;;;12.53;80.57;98979.25;5176188;28;20073;-78
2023/11/10 08:46:53;;;;;;;2.20;0.50;;;;;;;11.94;80.26;98983.28;5172376;28;20554;-77
2023/11/10 08:49:24;;;;;;;2.40;0.47;;;;;;;11.72;83.30;98977.78;5174093;28;20021;-78
2023/11/10 08:51:54;;;;;;;1.70;0.30;;;;;;;11.53;83.73;98971.19;5169570;28;20117;-76
2023/11/10 08:54:24;;;;;;;2.10;0.45;;;;;;;11.29;85.42;98972.78;5172593;28;20040;-76
2023/11/10 08:56:55;;;;;;;1.98;0.43;;;;;;;11.13;84.89;98970.28;5166983;28;20046;-76
2023/11/10 08:59:25;;;;;;;3.60;0.60;;;;;;;11.25;86.05;98973.94;5170905;28;20033;-76
2023/11/10 09:01:57;;;;;;;1.90;0.40;;;;;;;11.31;85.99;98965.69;5169624;28;20074;-76
2023/11/10 09:04:27;;;;;;;3.22;0.88;;;;;;;11.34;85.78;98974.19;5171783;28;20050;-78
2023/11/10 09:06:57;;;;;;;2.45;0.30;;;;;;;11.35;84.80;98973.25;5172358;28;20104;-77
2023/11/10 09:09:28;;;;;;;4.70;0.40;;;;;;;11.49;84.28;98974.97;5170795;28;20033;-78
2023/11/10 09:11:58;;;;;;;2.08;0.47;;;;;;;11.61;85.13;98982.88;5169648;28;20376;-78
2023/11/10 09:14:29;;;;;;;1.75;0.60;;;;;;;11.91;83.44;98973.00;5173427;28;20026;-78
2023/11/10 09:16:59;;;;;;;4.28;1.05;;;;;;;12.22;84.34;98970.03;5168158;28;20033;-78
2023/11/10 09:19:29;;;;;;;2.67;0.50;;;;;;;12.21;83.40;98965.72;5167595;28;20172;-78
2023/11/10 09:22:00;;;;;;;3.35;0.70;;;;;;;11.58;83.24;98969.19;5169971;28;20061;-77
2023/11/10 09:24:31;;;;;;;3.40;0.63;;;;;;;11.52;83.53;98972.13;5171018;28;20033;-78
2023/11/10 09:27:01;;;;;;;2.33;0.40;;;;;;;11.23;84.47;98965.31;5168087;28;20038;-77
2023/11/10 09:29:31;;;;;;;2.45;0.55;;;;;;;11.52;84.47;98972.13;5169768;28;20021;-77
2023/11/10 09:32:02;;;;;;;3.30;0.40;;;;;;;11.61;84.31;98971.59;5173932;28;20030;-77
2023/11/10 09:34:33;;;;;;;1.05;0.45;;;;;;;11.88;84.54;98978.47;5167367;28;20561;-78
2023/11/10 09:37:05;;;;;;;1.75;0.57;;;;;;;11.93;83.56;98973.75;5167993;28;20038;-78
2023/11/10 09:39:35;;;;;;;1.75;0.60;;;;;;;12.01;83.71;98976.72;5170994;28;20033;-79
2023/11/10 09:42:08;;;;;;;0.98;0.35;;;;;;;11.95;83.72;98978.91;5171226;28;20388;-79
2023/11/10 09:44:45;;;;;;;1.88;0.40;;;;;;;12.32;83.06;98976.31;5171815;28;20029;-78
2023/11/10 09:47:17;;;;;;;1.35;0.30;;;;;;;12.12;81.66;98979.44;5169625;28;20514;-78
2023/11/10 09:49:49;;;;;;;1.85;0.50;;;;;;;12.13;82.86;98978.50;5169200;28;20036;-79
2023/11/10 09:52:20;;;;;;;3.00;0.50;;;;;;;11.90;82.30;98979.19;5169161;28;20385;-78
2023/11/10 09:54:52;;;;;;;1.75;0.50;;;;;;;11.93;82.44;98973.75;5168066;28;20094;-79
2023/11/10 09:57:25;;;;;;;2.25;0.50;;;;;;;11.71;83.35;98978.72;5165547;28;20507;-79
2023/11/10 09:59:56;;;;;;;3.08;0.40;;;;;;;11.79;82.83;98973.81;5166445;28;20077;-78
2023/11/10 10:02:27;;;;;;;2.35;0.40;;;;;;;11.82;83.18;98978.03;5165461;28;20030;-79
2023/11/10 10:04:57;;;;;;;3.20;0.40;;;;;;;11.65;82.40;98986.13;5171104;28;20496;-78
2023/11/10 10:07:28;;;;;;;1.70;0.50;;;;;;;11.63;82.61;98982.78;5172736;28;20379;-79
2023/11/10 10:09:58;;;;;;;2.55;0.57;;;;;;;11.67;83.32;98984.25;5168687;28;20022;-77
2023/11/10 10:12:30;;;;;;;4.13;0.80;;;;;;;11.75;84.13;98977.59;5167495;28;20085;-78
2023/11/10 10:15:01;;;;;;;3.92;0.60;;;;;;;11.83;82.74;98979.69;5171085;28;20439;-78
2023/11/10 10:17:32;;;;;;;1.70;0.40;;;;;;;11.90;82.93;98973.09;5169158;28;20026;-78
2023/11/10 10:20:13;;;;;;;5.28;0.50;;;;;;;12.11;81.49;98974.31;5170029;28;20038;-75
2023/11/10 10:22:48;;;;;;;3.45;0.50;;;;;;;12.21;82.31;98980.59;5165179;28;20061;-78
2023/11/10 10:25:20;;;;;;;1.95;0.50;;;;;;;11.94;82.16;98969.38;5168472;28;20056;-78
2023/11/10 10:27:50;;;;;;;1.92;0.60;;;;;;;11.73;83.40;98966.38;5167877;28;20237;-79
2023/11/10 10:30:20;;;;;;;1.92;0.50;;;;;;;11.71;81.07;98964.78;5170698;28;20054;-79
2023/11/10 10:32:51;;;;;;;2.85;0.50;;;;;;;11.77;82.71;98975.69;5167827;28;20022;-78
2023/11/10 10:35:22;;;;;;;2.25;0.40;;;;;;;11.87;83.00;98970.69;5169050;28;20410;-79
2023/11/10 10:38:01;;;;;;;1.40;0.43;;;;;;;11.95;80.19;98968.44;5165933;28;20037;-78
2023/11/10 10:40:35;;;;;;;3.47;0.50;;;;;;;11.92;80.27;98971.25;5169588;28;20434;-78
2023/11/10 10:43:08;;;;;;;2.65;0.40;;;;;;;11.79;80.34;98962.53;5167439;28;20499;-78
2023/11/10 10:45:40;;;;;;;1.02;0.40;;;;;;;11.94;79.59;98964.94;5168095;28;20061;-77
2023/11/10 10:48:11;;;;;;;3.53;0.50;;;;;;;12.12;78.92;98958.47;5168338;28;20496;-78
2023/11/10 10:50:43;;;;;;;1.80;0.40;;;;;;;12.15;77.84;98952.22;5165526;28;20021;-78
2023/11/10 10:53:14;;;;;;;1.90;0.50;;;;;;;12.03;78.34;98955.66;5166048;28;20033;-77
2023/11/10 10:55:50;;;;;;;3.33;0.52;;;;;;;12.09;79.09;98961.31;5167501;28;20514;-78
2023/11/10 10:58:24;;;;;;;1.85;0.50;;;;;;;12.33;79.77;98957.03;5166182;28;20053;-78
2023/11/10 11:00:54;;;;;;;1.70;0.60;;;;;;;12.47;79.59;98956.09;5168680;28;20018;-78
2023/11/10 11:03:53;;;;;;;2.20;0.35;;;;;;;12.66;79.50;98956.50;5169806;28;20083;-76
2023/11/10 11:06:42;;;;;;;2.53;0.40;;;;;;;12.58;79.08;98957.03;5171223;28;20061;-76
2023/11/10 11:09:45;;;;;;;3.13;0.70;;;;;;;12.46;79.00;98951.81;5170008;28;20943;-79
2023/11/10 11:12:54;;;;;;;3.13;0.70;;;;;;;12.38;79.90;98947.09;5168707;28;20193;-79
2023/11/10 11:15:46;;;;;;;2.55;0.60;;;;;;;12.12;78.97;98944.56;5164999;28;20037;-75
2023/11/10 11:19:03;;;;;;;1.88;0.50;;;;;;;12.04;80.31;98950.31;5169659;28;20030;-79
2023/11/10 11:21:35;;;;;;;0.65;0.40;;;;;;;11.73;81.03;98942.81;5155300;28;20496;-79
2023/11/10 11:24:06;;;;;;;1.42;0.60;;;;;;;11.60;81.47;98947.19;5172076;28;20046;-78
2023/11/10 11:26:37;;;;;;;2.08;0.63;;;;;;;11.59;81.69;98942.91;5171112;28;20018;-79
2023/11/10 11:29:09;;;;;;;1.75;0.47;;;;;;;11.46;82.61;98939.38;5170097;28;20104;-78
2023/11/10 11:31:52;;;;;;;3.80;0.80;;;;;;;11.30;84.52;98938.69;5169874;28;20034;-78
2023/11/10 11:34:22;;;;;;;3.72;0.70;;;;;;;11.47;84.74;98935.81;5170930;28;20490;-78
2023/11/10 11:36:53;;;;;;;2.70;0.57;;;;;;;11.52;85.43;98931.13;5165715;28;20036;-79
2023/11/10 11:39:26;;;;;;;2.22;0.60;;;;;;;11.56;85.00;98935.25;5168699;28;20399;-75
2023/11/10 11:41:56;;;;;;;2.60;0.50;;;;;;;11.71;84.43;98928.16;5167414;28;20044;-78
2023/11/10 11:44:31;;;;;;;2.95;0.65;;;;;;;11.83;83.28;98927.34;5174739;28;20488;-78
2023/11/10 11:47:10;;;;;;;2.17;0.43;;;;;;;11.82;83.09;98930.91;5173918;28;20034;-79
2023/11/10 11:49:40;;;;;;;0.40;0.20;;;;;;;11.93;81.95;98926.63;5170841;28;20273;-76
2023/11/10 11:52:11;;;;;;;1.15;0.30;;;;;;;11.76;82.16;98920.88;5170118;28;20595;-79
2023/11/10 11:54:41;;;;;;;1.63;0.40;;;;;;;11.85;81.30;98921.09;5170264;28;20025;-79